createdAt,value
2022-10-03T00:01:09.471Z,93773.16
2022-10-03T00:02:27.222Z,93772.16
2022-10-03T00:03:33.879Z,93766.91
2022-10-03T00:05:07.392Z,93757.97
2022-10-03T00:06:14.241Z,93765.50
2022-10-03T00:07:18.592Z,93758.06
2022-10-03T00:08:37.383Z,93759.97
2022-10-03T00:10:05.945Z,93760.31
2022-10-03T00:11:27.502Z,93755.41
2022-10-03T00:12:51.890Z,93748.09
2022-10-03T00:14:00.581Z,93735.13
2022-10-03T00:15:05.209Z,93744.50
2022-10-03T00:16:29.518Z,93739.63
2022-10-03T00:17:59.429Z,93734.84
2022-10-03T00:18:58.661Z,93732.09
2022-10-03T00:20:15.237Z,93725.56
2022-10-03T00:21:38.593Z,93723.63
2022-10-03T00:22:38.229Z,93724.22
2022-10-03T00:23:35.906Z,93729.63
2022-10-03T00:24:48.108Z,93727.88
2022-10-03T00:26:30.897Z,93730.56
2022-10-03T00:27:33.489Z,93723.22
2022-10-03T00:28:39.111Z,93725.78
2022-10-03T00:29:38.641Z,93727.84
2022-10-03T00:31:01.494Z,93710.91
2022-10-03T00:31:58.027Z,93715.19
2022-10-03T00:32:54.544Z,93708.72
2022-10-03T00:34:19.681Z,93694.22
2022-10-03T00:35:24.480Z,93715.25
2022-10-03T00:36:51.072Z,93712.31
2022-10-03T00:38:05.819Z,93707.22
2022-10-03T00:39:11.588Z,93707.50
2022-10-03T00:40:32.887Z,93708.28
2022-10-03T00:42:01.968Z,93713.09
2022-10-03T00:43:31.483Z,93715.41
2022-10-03T00:44:44.082Z,93709.47
2022-10-03T00:45:55.667Z,93719.22
2022-10-03T00:46:54.985Z,93711.56
2022-10-03T00:48:20.191Z,93716.59
2022-10-03T00:49:22.930Z,93720.16
2022-10-03T00:50:34.408Z,93714.00
2022-10-03T00:51:58.361Z,93712.44
2022-10-03T00:53:16.829Z,93710.34
2022-10-03T00:55:04.317Z,93704.94
2022-10-03T00:56:39.019Z,93699.63
2022-10-03T00:57:59.812Z,93701.16
2022-10-03T00:59:11.304Z,93698.94
2022-10-03T01:00:19.340Z,93700.91
2022-10-03T01:01:27.938Z,93687.88
2022-10-03T01:02:39.416Z,93697.50
2022-10-03T01:03:58.792Z,93707.56
2022-10-03T01:05:29.880Z,93703.09
2022-10-03T01:07:00.897Z,93698.53
2022-10-03T01:08:24.308Z,93698.63
2022-10-03T01:09:41.851Z,93699.06
2022-10-03T01:10:44.552Z,93696.81
2022-10-03T01:12:02.335Z,93700.34
2022-10-03T01:13:10.932Z,93696.97
2022-10-03T01:14:31.231Z,93678.38
2022-10-03T01:15:43.645Z,93689.09
2022-10-03T01:16:56.723Z,93682.75
2022-10-03T01:18:09.463Z,93684.81
2022-10-03T01:19:24.829Z,93689.56
2022-10-03T01:20:53.920Z,93688.19
2022-10-03T01:22:18.958Z,93694.13
2022-10-03T01:23:37.246Z,93683.03
2022-10-03T01:24:45.810Z,93685.63
2022-10-03T01:25:56.835Z,93690.63
2022-10-03T01:26:53.394Z,93693.16
2022-10-03T01:28:14.418Z,93685.28
2022-10-03T01:29:58.092Z,93688.47
2022-10-03T01:31:03.098Z,93687.16
2022-10-03T01:32:15.920Z,93694.88
2022-10-03T01:33:35.465Z,93697.91
2022-10-03T01:34:48.699Z,93700.00
2022-10-03T01:35:59.768Z,93694.47
2022-10-03T01:37:38.134Z,93682.84
2022-10-03T01:38:39.733Z,93695.25
2022-10-03T01:39:46.787Z,93622.59
2022-10-03T01:40:57.604Z,93698.69
2022-10-03T01:42:06.130Z,93696.03
2022-10-03T01:43:12.011Z,93704.00
2022-10-03T01:44:24.515Z,93702.13
2022-10-03T01:45:37.496Z,93697.78
2022-10-03T01:46:48.710Z,93696.03
2022-10-03T01:47:55.517Z,93695.13
2022-10-03T01:49:09.511Z,93697.38
2022-10-03T01:50:20.131Z,93699.34
2022-10-03T01:51:29.090Z,93689.63
2022-10-03T01:52:47.469Z,93696.28
2022-10-03T01:53:59.443Z,93687.16
2022-10-03T01:55:02.650Z,93697.69
2022-10-03T01:56:25.871Z,93695.38
2022-10-03T01:57:38.929Z,93694.16
2022-10-03T01:58:59.372Z,93669.56
2022-10-03T02:00:07.547Z,93691.59
2022-10-03T02:01:13.578Z,93691.16
2022-10-03T02:02:28.269Z,93681.19
2022-10-03T02:03:31.449Z,93688.06
2022-10-03T02:04:28.007Z,93690.41
2022-10-03T02:05:43.069Z,93680.97
2022-10-03T02:06:44.322Z,93679.09
2022-10-03T02:07:49.906Z,93680.75
2022-10-03T02:09:03.676Z,93666.78
2022-10-03T02:10:07.439Z,93682.53
2022-10-03T02:11:08.433Z,93677.28
2022-10-03T02:12:09.732Z,93682.94
2022-10-03T02:13:28.946Z,93681.19
2022-10-03T02:14:39.842Z,93678.38
2022-10-03T02:16:08.243Z,93683.94
2022-10-03T02:17:16.782Z,93683.44
2022-10-03T02:18:21.746Z,93683.00
2022-10-03T02:19:26.480Z,93687.22
2022-10-03T02:20:26.373Z,93694.34
2022-10-03T02:21:30.553Z,93687.66
2022-10-03T02:22:38.705Z,93693.59
2022-10-03T02:23:36.322Z,93695.44
2022-10-03T02:24:50.885Z,93693.72
2022-10-03T02:26:05.835Z,93690.50
2022-10-03T02:27:41.571Z,93697.81
2022-10-03T02:29:02.494Z,93689.06
2022-10-03T02:30:10.311Z,93696.91
2022-10-03T02:31:17.513Z,93691.03
2022-10-03T02:32:39.289Z,93690.84
2022-10-03T02:34:02.379Z,93687.94
2022-10-03T02:35:40.091Z,93685.28
2022-10-03T02:36:55.170Z,93680.16
2022-10-03T02:38:09.005Z,93687.03
2022-10-03T02:39:42.402Z,93681.94
2022-10-03T02:41:09.749Z,93689.34
2022-10-03T02:42:27.478Z,93679.69
2022-10-03T02:43:31.884Z,93681.88
2022-10-03T02:44:28.494Z,93680.44
2022-10-03T02:45:46.700Z,93669.81
2022-10-03T02:47:01.441Z,93675.13
2022-10-03T02:48:30.548Z,93674.28
2022-10-03T02:49:45.442Z,93674.63
2022-10-03T02:50:58.316Z,93672.88
2022-10-03T02:52:06.994Z,93670.56
2022-10-03T02:53:15.673Z,93669.69
2022-10-03T02:54:57.154Z,93677.84
2022-10-03T02:56:08.844Z,93674.72
2022-10-03T02:57:53.817Z,93678.59
2022-10-03T02:59:22.599Z,93673.28
2022-10-03T03:00:28.100Z,93662.22
2022-10-03T03:01:39.184Z,93670.56
2022-10-03T03:02:41.958Z,93672.84
2022-10-03T03:04:07.816Z,93676.28
2022-10-03T03:05:25.760Z,93674.31
2022-10-03T03:06:46.973Z,93663.91
2022-10-03T03:08:13.841Z,93670.88
2022-10-03T03:09:48.013Z,93671.44
2022-10-03T03:11:03.316Z,93673.66
2022-10-03T03:12:08.978Z,93667.22
2022-10-03T03:13:39.752Z,93676.97
2022-10-03T03:15:08.577Z,93675.66
2022-10-03T03:16:41.977Z,93670.19
2022-10-03T03:17:44.734Z,93676.53
2022-10-03T03:19:07.749Z,93672.09
2022-10-03T03:20:27.211Z,93663.44
2022-10-03T03:21:32.583Z,93661.09
2022-10-03T03:22:36.422Z,93669.09
2022-10-03T03:23:55.109Z,93666.00
2022-10-03T03:25:21.053Z,93663.34
2022-10-03T03:26:58.060Z,93661.56
2022-10-03T03:28:13.050Z,93659.03
2022-10-03T03:29:43.326Z,93657.91
2022-10-03T03:31:21.667Z,93647.28
2022-10-03T03:32:31.198Z,93663.34
2022-10-03T03:33:40.806Z,93663.66
2022-10-03T03:34:50.831Z,93661.00
2022-10-03T03:36:05.887Z,93659.47
2022-10-03T03:37:16.201Z,93664.31
2022-10-03T03:38:30.267Z,93664.31
2022-10-03T03:40:01.845Z,93661.00
2022-10-03T03:41:30.283Z,93660.56
2022-10-03T03:42:35.628Z,93662.28
2022-10-03T03:43:50.860Z,93663.53
2022-10-03T03:45:07.845Z,93659.63
2022-10-03T03:46:22.306Z,93665.09
2022-10-03T03:47:18.947Z,93663.66
2022-10-03T03:48:40.148Z,93659.44
2022-10-03T03:49:43.706Z,93660.09
2022-10-03T03:51:05.551Z,93661.41
2022-10-03T03:52:38.286Z,93665.13
2022-10-03T03:54:13.711Z,93661.38
2022-10-03T03:55:41.238Z,93658.97
2022-10-03T03:57:01.888Z,93662.19
2022-10-03T03:57:59.877Z,93663.66
2022-10-03T03:59:13.556Z,93654.13
2022-10-03T04:00:21.128Z,93654.91
2022-10-03T04:01:39.601Z,93650.13
2022-10-03T04:02:54.650Z,93651.31
2022-10-03T04:04:00.978Z,93645.78
2022-10-03T04:05:00.981Z,93650.38
2022-10-03T04:06:28.444Z,93649.00
2022-10-03T04:07:49.317Z,93648.88
2022-10-03T04:08:59.243Z,93650.28
2022-10-03T04:10:13.248Z,93643.41
2022-10-03T04:11:33.232Z,93640.06
2022-10-03T04:12:55.987Z,93644.25
2022-10-03T04:14:11.250Z,93647.72
2022-10-03T04:15:29.675Z,93639.03
2022-10-03T04:17:11.134Z,93633.34
2022-10-03T04:18:32.096Z,93632.19
2022-10-03T04:19:49.718Z,93630.41
2022-10-03T04:21:05.096Z,93634.47
2022-10-03T04:22:22.797Z,93631.34
2022-10-03T04:23:58.244Z,93629.34
2022-10-03T04:25:20.541Z,93632.94
2022-10-03T04:26:22.394Z,93630.53
2022-10-03T04:27:46.371Z,93630.13
2022-10-03T04:28:51.918Z,93626.16
2022-10-03T04:30:03.395Z,93628.44
2022-10-03T04:31:05.495Z,93630.44
2022-10-03T04:32:17.399Z,93630.53
2022-10-03T04:33:49.178Z,93605.59
2022-10-03T04:35:07.083Z,93623.47
2022-10-03T04:36:15.928Z,93628.31
2022-10-03T04:37:25.677Z,93614.59
2022-10-03T04:38:51.203Z,93635.22
2022-10-03T04:40:04.820Z,93631.31
2022-10-03T04:41:12.559Z,93631.25
2022-10-03T04:42:27.200Z,93632.63
2022-10-03T04:43:45.444Z,93612.88
2022-10-03T04:45:09.475Z,93634.13
2022-10-03T04:46:32.872Z,93636.78
2022-10-03T04:48:10.183Z,93632.75
2022-10-03T04:49:28.206Z,93627.16
2022-10-03T04:50:37.496Z,93637.28
2022-10-03T04:51:55.866Z,93626.13
2022-10-03T04:53:21.287Z,93628.13
2022-10-03T04:54:48.386Z,93629.78
2022-10-03T04:55:54.200Z,93626.97
2022-10-03T04:56:59.732Z,93626.78
2022-10-03T04:57:56.234Z,93629.81
2022-10-03T04:59:12.082Z,93636.78
2022-10-03T05:00:23.527Z,93616.31
2022-10-03T05:01:20.171Z,93631.03
2022-10-03T05:02:33.394Z,93629.22
2022-10-03T05:03:54.395Z,93623.56
2022-10-03T05:05:12.402Z,93629.22
2022-10-03T05:06:36.625Z,93629.13
2022-10-03T05:07:45.540Z,93622.41
2022-10-03T05:09:13.966Z,93609.75
2022-10-03T05:10:48.368Z,93624.13
2022-10-03T05:12:00.067Z,93622.84
2022-10-03T05:13:16.850Z,93628.34
2022-10-03T05:15:05.715Z,93629.22
2022-10-03T05:16:14.498Z,93624.84
2022-10-03T05:17:26.100Z,93634.59
2022-10-03T05:18:39.456Z,93627.13
2022-10-03T05:19:51.062Z,93618.38
2022-10-03T05:21:14.223Z,93624.63
2022-10-03T05:22:38.664Z,93612.56
2022-10-03T05:24:03.372Z,93618.25
2022-10-03T05:25:32.672Z,93608.78
2022-10-03T05:27:00.485Z,93606.56
2022-10-03T05:28:15.492Z,93613.16
2022-10-03T05:29:44.138Z,93614.38
2022-10-03T05:31:20.726Z,93592.75
2022-10-03T05:32:24.448Z,93606.25
2022-10-03T05:33:29.864Z,93597.69
2022-10-03T05:34:44.367Z,93602.75
2022-10-03T05:36:12.214Z,93592.63
2022-10-03T05:37:43.632Z,93596.50
2022-10-03T05:39:01.474Z,93609.88
2022-10-03T05:40:20.536Z,93617.03
2022-10-03T05:41:17.178Z,93624.94
2022-10-03T05:42:35.757Z,93629.91
2022-10-03T05:43:32.688Z,93627.44
2022-10-03T05:45:11.138Z,93613.22
2022-10-03T05:46:30.154Z,93625.19
2022-10-03T05:47:49.121Z,93627.78
2022-10-03T05:49:02.102Z,93621.19
2022-10-03T05:50:20.115Z,93620.94
2022-10-03T05:51:43.847Z,93627.78
2022-10-03T05:52:46.674Z,93618.06
2022-10-03T05:53:58.417Z,93614.78
2022-10-03T05:55:13.476Z,93615.34
2022-10-03T05:56:22.312Z,93622.94
2022-10-03T05:57:39.136Z,93615.38
2022-10-03T05:59:08.162Z,93624.06
2022-10-03T06:00:31.103Z,93622.28
2022-10-03T06:01:51.900Z,93620.88
2022-10-03T06:03:17.190Z,93618.75
2022-10-03T06:04:27.176Z,93624.66
2022-10-03T06:06:01.241Z,93629.22
2022-10-03T06:07:21.766Z,93630.22
2022-10-03T06:08:39.100Z,93632.75
2022-10-03T06:10:04.530Z,93588.75
2022-10-03T06:11:38.486Z,93634.28
2022-10-03T06:13:03.292Z,93632.66
2022-10-03T06:14:27.271Z,93635.75
2022-10-03T06:15:44.771Z,93633.59
2022-10-03T06:17:04.495Z,93639.94
2022-10-03T06:18:12.042Z,93637.22
2022-10-03T06:19:43.051Z,93639.59
2022-10-03T06:21:16.355Z,93638.50
2022-10-03T06:22:21.756Z,93646.56
2022-10-03T06:23:34.662Z,93642.97
2022-10-03T06:24:49.763Z,93653.06
2022-10-03T06:26:03.927Z,93650.19
2022-10-03T06:27:29.547Z,93648.63
2022-10-03T06:28:44.207Z,93659.16
2022-10-03T06:30:12.042Z,93650.00
2022-10-03T06:31:55.074Z,93650.38
2022-10-03T06:33:04.098Z,93649.38
2022-10-03T06:34:41.951Z,93656.09
2022-10-03T06:36:02.869Z,93645.41
2022-10-03T06:37:05.303Z,93652.59
2022-10-03T06:38:04.711Z,93660.59
2022-10-03T06:39:38.802Z,93655.41
2022-10-03T06:41:09.292Z,93644.34
2022-10-03T06:42:27.259Z,93661.91
2022-10-03T06:43:51.447Z,93661.56
2022-10-03T06:45:30.091Z,93662.53
2022-10-03T06:46:30.773Z,93666.16
2022-10-03T06:47:42.119Z,93664.94
2022-10-03T06:49:01.447Z,93665.22
2022-10-03T06:50:28.733Z,93674.34
2022-10-03T06:51:35.680Z,93668.91
2022-10-03T06:53:13.068Z,93666.50
2022-10-03T06:54:34.563Z,93671.25
2022-10-03T06:55:52.792Z,93671.59
2022-10-03T06:57:43.547Z,93675.88
2022-10-03T06:59:05.424Z,93680.47
2022-10-03T07:00:11.924Z,93688.13
2022-10-03T07:01:25.230Z,93690.72
2022-10-03T07:02:39.962Z,93685.22
2022-10-03T07:04:01.319Z,93691.09
2022-10-03T07:05:29.184Z,93694.50
2022-10-03T07:06:59.761Z,93699.28
2022-10-03T07:08:12.078Z,93707.75
2022-10-03T07:09:08.598Z,93708.59
2022-10-03T07:10:35.136Z,93709.03
2022-10-03T07:11:51.219Z,93715.16
2022-10-03T07:13:06.345Z,93724.59
2022-10-03T07:14:25.178Z,93719.53
2022-10-03T07:15:50.826Z,93726.34
2022-10-03T07:17:17.962Z,93719.88
2022-10-03T07:18:41.727Z,93727.19
2022-10-03T07:19:47.207Z,93729.94
2022-10-03T07:21:05.433Z,93719.66
2022-10-03T07:22:23.632Z,93722.31
2022-10-03T07:23:44.902Z,93726.16
2022-10-03T07:25:03.187Z,93722.56
2022-10-03T07:26:21.484Z,93716.84
2022-10-03T07:27:21.140Z,93716.44
2022-10-03T07:29:02.846Z,93725.72
2022-10-03T07:30:09.176Z,93721.31
2022-10-03T07:31:21.132Z,93717.53
2022-10-03T07:32:29.939Z,93716.84
2022-10-03T07:33:29.446Z,93719.81
2022-10-03T07:34:51.826Z,93725.66
2022-10-03T07:36:28.727Z,93735.66
2022-10-03T07:38:01.486Z,93721.31
2022-10-03T07:39:31.547Z,93717.09
2022-10-03T07:40:31.047Z,93719.19
2022-10-03T07:42:20.099Z,93721.03
2022-10-03T07:43:38.138Z,93729.94
2022-10-03T07:45:07.530Z,93733.44
2022-10-03T07:46:31.765Z,93734.06
2022-10-03T07:47:46.749Z,93729.94
2022-10-03T07:48:55.403Z,93740.63
2022-10-03T07:50:02.255Z,93742.16
2022-10-03T07:51:08.768Z,93735.44
2022-10-03T07:52:31.257Z,93736.66
2022-10-03T07:53:46.088Z,93740.19
2022-10-03T07:55:13.617Z,93730.13
2022-10-03T07:56:40.057Z,93726.84
2022-10-03T07:58:07.642Z,93706.97
2022-10-03T07:59:06.948Z,93732.28
2022-10-03T08:00:22.831Z,93736.25
2022-10-03T08:01:42.715Z,93744.69
2022-10-03T08:03:16.766Z,93733.97
2022-10-03T08:04:26.299Z,93738.94
2022-10-03T08:06:01.405Z,93740.94
2022-10-03T08:07:10.264Z,93739.91
2022-10-03T08:08:32.046Z,93749.47
2022-10-03T08:10:11.487Z,93744.78
2022-10-03T08:11:29.470Z,93739.56
2022-10-03T08:13:05.342Z,93735.41
2022-10-03T08:14:12.084Z,93735.50
2022-10-03T08:15:21.621Z,93741.63
2022-10-03T08:16:35.331Z,93744.53
2022-10-03T08:17:47.402Z,93744.75
2022-10-03T08:19:14.780Z,93744.78
2022-10-03T08:20:17.227Z,93734.00
2022-10-03T08:21:34.680Z,93750.47
2022-10-03T08:22:43.209Z,93755.94
2022-10-03T08:24:16.670Z,93763.84
2022-10-03T08:25:47.333Z,93761.28
2022-10-03T08:26:52.341Z,93765.66
2022-10-03T08:28:07.680Z,93762.53
2022-10-03T08:29:39.448Z,93761.00
2022-10-03T08:31:02.311Z,93758.53
2022-10-03T08:32:20.196Z,93760.47
2022-10-03T08:33:28.194Z,93763.19
2022-10-03T08:35:01.968Z,93765.31
2022-10-03T08:36:29.581Z,93766.81
2022-10-03T08:37:58.043Z,93766.44
2022-10-03T08:39:10.002Z,93766.78
2022-10-03T08:40:56.651Z,93756.66
2022-10-03T08:42:30.917Z,93755.94
2022-10-03T08:44:27.003Z,93757.78
2022-10-03T08:45:32.131Z,93770.44
2022-10-03T08:46:43.800Z,93775.63
2022-10-03T08:48:09.424Z,93773.09
2022-10-03T08:49:35.173Z,93772.66
2022-10-03T08:50:50.106Z,93759.22
2022-10-03T08:52:00.552Z,93759.44
2022-10-03T08:53:00.774Z,93761.66
2022-10-03T08:54:02.660Z,93763.84
2022-10-03T08:55:23.744Z,93764.19
2022-10-03T08:56:57.396Z,93762.72
2022-10-03T08:58:05.553Z,93764.88
2022-10-03T08:59:09.644Z,93766.31
2022-10-03T09:00:22.498Z,93755.38
2022-10-03T09:01:19.216Z,93770.09
2022-10-03T09:03:18.931Z,93767.63
2022-10-03T09:04:48.485Z,93763.16
2022-10-03T09:06:19.951Z,93766.75
2022-10-03T09:07:37.556Z,93768.78
2022-10-03T09:08:49.265Z,93766.56
2022-10-03T09:10:04.059Z,93764.22
2022-10-03T09:11:09.921Z,93756.84
2022-10-03T09:12:28.568Z,93768.94
2022-10-03T09:13:51.265Z,93765.34
2022-10-03T09:15:07.971Z,93773.69
2022-10-03T09:16:22.934Z,93777.09
2022-10-03T09:17:56.986Z,93778.38
2022-10-03T09:19:06.743Z,93772.56
2022-10-03T09:20:06.093Z,93772.34
2022-10-03T09:21:20.644Z,93772.25
2022-10-03T09:22:23.254Z,93774.59
2022-10-03T09:24:09.472Z,93771.84
2022-10-03T09:25:15.239Z,93776.88
2022-10-03T09:26:42.139Z,93772.69
2022-10-03T09:27:42.765Z,93782.41
2022-10-03T09:29:13.330Z,93768.84
2022-10-03T09:30:26.129Z,93770.06
2022-10-03T09:32:06.945Z,93771.22
2022-10-03T09:33:24.890Z,93762.38
2022-10-03T09:34:30.359Z,93770.44
2022-10-03T09:35:59.013Z,93771.34
2022-10-03T09:37:18.438Z,93765.41
2022-10-03T09:38:53.395Z,93760.78
2022-10-03T09:40:18.386Z,93758.28
2022-10-03T09:41:37.232Z,93757.38
2022-10-03T09:42:50.543Z,93762.94
2022-10-03T09:44:23.270Z,93762.50
2022-10-03T09:45:34.830Z,93759.97
2022-10-03T09:46:31.417Z,93754.31
2022-10-03T09:47:46.334Z,93762.44
2022-10-03T09:49:02.184Z,93771.81
2022-10-03T09:50:19.484Z,93760.59
2022-10-03T09:51:29.425Z,93764.75
2022-10-03T09:53:03.574Z,93765.22
2022-10-03T09:54:24.212Z,93764.94
2022-10-03T09:56:01.700Z,93739.53
2022-10-03T09:57:01.174Z,93758.09
2022-10-03T09:58:16.542Z,93753.69
2022-10-03T09:59:31.659Z,93756.69
2022-10-03T10:00:39.707Z,93755.19
2022-10-03T10:02:13.085Z,93750.72
2022-10-03T10:03:43.617Z,93754.59
2022-10-03T10:05:04.194Z,93739.84
2022-10-03T10:06:23.971Z,93743.06
2022-10-03T10:07:42.523Z,93753.00
2022-10-03T10:09:08.243Z,93743.47
2022-10-03T10:10:31.080Z,93752.31
2022-10-03T10:11:36.790Z,93753.06
2022-10-03T10:13:04.395Z,93745.28
2022-10-03T10:14:30.914Z,93744.94
2022-10-03T10:15:46.245Z,93743.31
2022-10-03T10:16:48.088Z,93744.53
2022-10-03T10:18:04.729Z,93738.56
2022-10-03T10:19:31.377Z,93732.22
2022-10-03T10:20:57.402Z,93737.25
2022-10-03T10:22:15.994Z,93726.06
2022-10-03T10:23:40.047Z,93740.31
2022-10-03T10:24:39.795Z,93736.88
2022-10-03T10:25:36.706Z,93738.56
2022-10-03T10:26:42.682Z,93737.59
2022-10-03T10:28:13.092Z,93749.19
2022-10-03T10:29:18.863Z,93752.03
2022-10-03T10:30:50.977Z,93761.47
2022-10-03T10:32:10.868Z,93753.09
2022-10-03T10:33:32.042Z,93760.06
2022-10-03T10:35:06.205Z,93724.84
2022-10-03T10:36:24.547Z,93752.50
2022-10-03T10:37:56.381Z,93758.47
2022-10-03T10:39:30.384Z,93765.53
2022-10-03T10:40:49.243Z,93764.53
2022-10-03T10:42:27.703Z,93756.72
2022-10-03T10:43:33.423Z,93756.13
2022-10-03T10:44:55.456Z,93759.00
2022-10-03T10:46:10.212Z,93755.81
2022-10-03T10:47:28.629Z,93756.53
2022-10-03T10:48:28.054Z,93746.22
2022-10-03T10:50:10.589Z,93754.50
2022-10-03T10:51:58.466Z,93744.06
2022-10-03T10:53:10.136Z,93744.66
2022-10-03T10:54:28.492Z,93741.13
2022-10-03T10:55:25.122Z,93739.41
2022-10-03T10:56:30.546Z,93738.59
2022-10-03T10:57:29.898Z,93745.50
2022-10-03T10:58:44.360Z,93741.59
2022-10-03T11:00:07.909Z,93727.13
2022-10-03T11:01:37.059Z,93729.41
2022-10-03T11:02:33.915Z,93735.97
2022-10-03T11:03:53.754Z,93732.84
2022-10-03T11:05:15.790Z,93738.31
2022-10-03T11:06:53.428Z,93727.91
2022-10-03T11:08:23.822Z,93727.94
2022-10-03T11:09:45.350Z,93735.22
2022-10-03T11:11:06.197Z,93717.94
2022-10-03T11:12:27.150Z,93723.69
2022-10-03T11:13:51.607Z,93724.44
2022-10-03T11:15:16.149Z,93724.38
2022-10-03T11:16:35.407Z,93729.38
2022-10-03T11:18:06.500Z,93730.25
2022-10-03T11:19:11.962Z,93722.22
2022-10-03T11:20:51.205Z,93721.47
2022-10-03T11:22:06.237Z,93724.38
2022-10-03T11:23:04.867Z,93718.00
2022-10-03T11:24:29.497Z,93720.34
2022-10-03T11:26:03.799Z,93718.84
2022-10-03T11:27:31.373Z,93719.59
2022-10-03T11:28:46.430Z,93718.06
2022-10-03T11:30:16.394Z,93719.81
2022-10-03T11:31:34.431Z,93711.25
2022-10-03T11:32:55.689Z,93706.31
2022-10-03T11:34:31.138Z,93703.25
2022-10-03T11:36:05.256Z,93718.28
2022-10-03T11:37:23.649Z,93715.63
2022-10-03T11:38:49.132Z,93707.13
2022-10-03T11:40:00.900Z,93709.44
2022-10-03T11:41:23.198Z,93717.88
2022-10-03T11:42:36.149Z,93714.81
2022-10-03T11:43:44.697Z,93711.56
2022-10-03T11:44:43.321Z,93699.31
2022-10-03T11:46:08.501Z,93717.47
2022-10-03T11:47:23.821Z,93716.00
2022-10-03T11:48:46.261Z,93709.03
2022-10-03T11:49:55.080Z,93714.78
2022-10-03T11:50:57.645Z,93697.06
2022-10-03T11:52:19.262Z,93725.75
2022-10-03T11:53:40.559Z,93719.97
2022-10-03T11:54:44.232Z,93709.78
2022-10-03T11:55:54.745Z,93707.88
2022-10-03T11:57:00.088Z,93707.53
2022-10-03T11:58:14.913Z,93710.56
2022-10-03T11:59:34.559Z,93723.28
2022-10-03T12:00:36.218Z,93720.19
2022-10-03T12:01:48.601Z,93717.50
2022-10-03T12:02:53.829Z,93720.97
2022-10-03T12:03:53.538Z,93722.13
2022-10-03T12:04:55.765Z,93715.22
2022-10-03T12:06:35.737Z,93706.34
2022-10-03T12:08:06.231Z,93705.22
2022-10-03T12:09:14.619Z,93709.84
2022-10-03T12:10:33.171Z,93711.72
2022-10-03T12:11:38.536Z,93706.59
2022-10-03T12:12:35.934Z,93708.81
2022-10-03T12:13:41.411Z,93695.69
2022-10-03T12:14:46.900Z,93688.09
2022-10-03T12:15:52.577Z,93699.66
2022-10-03T12:17:00.096Z,93680.94
2022-10-03T12:18:26.166Z,93690.94
2022-10-03T12:19:50.330Z,93688.63
2022-10-03T12:21:05.499Z,93687.47
2022-10-03T12:22:19.927Z,93692.81
2022-10-03T12:23:54.909Z,93697.09
2022-10-03T12:25:01.297Z,93680.53
2022-10-03T12:26:03.095Z,93692.44
2022-10-03T12:27:17.767Z,93707.13
2022-10-03T12:28:28.142Z,93699.78
2022-10-03T12:29:27.578Z,93693.16
2022-10-03T12:30:27.615Z,93696.63
2022-10-03T12:31:31.620Z,93704.31
2022-10-03T12:32:44.704Z,93690.56
2022-10-03T12:33:52.997Z,93666.50
2022-10-03T12:35:19.640Z,93701.34
2022-10-03T12:36:23.992Z,93689.81
2022-10-03T12:37:44.080Z,93688.66
2022-10-03T12:38:53.015Z,93688.22
2022-10-03T12:40:00.854Z,93693.94
2022-10-03T12:41:32.936Z,93692.47
2022-10-03T12:43:01.548Z,93699.78
2022-10-03T12:44:30.587Z,93684.03
2022-10-03T12:45:36.742Z,93682.09
2022-10-03T12:47:03.162Z,93704.03
2022-10-03T12:48:09.021Z,93696.34
2022-10-03T12:49:16.371Z,93690.19
2022-10-03T12:50:38.922Z,93692.09
2022-10-03T12:51:50.506Z,93697.50
2022-10-03T12:52:57.527Z,93684.41
2022-10-03T12:54:00.204Z,93698.56
2022-10-03T12:55:05.886Z,93695.06
2022-10-03T12:56:14.104Z,93687.69
2022-10-03T12:57:28.682Z,93698.09
2022-10-03T12:58:40.940Z,93695.34
2022-10-03T12:59:47.400Z,93697.00
2022-10-03T13:01:05.745Z,93692.34
2022-10-03T13:02:28.095Z,93697.88
2022-10-03T13:03:48.730Z,93692.06
2022-10-03T13:05:13.154Z,93694.44
2022-10-03T13:06:58.331Z,93698.63
2022-10-03T13:07:57.947Z,93680.19
2022-10-03T13:09:06.417Z,93702.44
2022-10-03T13:10:18.392Z,93696.72
2022-10-03T13:11:57.147Z,93705.56
2022-10-03T13:12:58.764Z,93697.22
2022-10-03T13:13:58.112Z,93706.00
2022-10-03T13:15:32.058Z,93704.50
2022-10-03T13:16:35.252Z,93698.25
2022-10-03T13:18:01.588Z,93694.19
2022-10-03T13:19:17.664Z,93697.38
2022-10-03T13:20:29.253Z,93699.63
2022-10-03T13:21:46.059Z,93707.44
2022-10-03T13:22:53.020Z,93692.09
2022-10-03T13:23:58.635Z,93697.38
2022-10-03T13:25:01.661Z,93703.75
2022-10-03T13:26:18.498Z,93698.91
2022-10-03T13:27:52.051Z,93707.66
2022-10-03T13:28:51.845Z,93705.47
2022-10-03T13:29:55.269Z,93703.81
2022-10-03T13:30:57.817Z,93710.41
2022-10-03T13:32:05.619Z,93680.41
2022-10-03T13:33:26.463Z,93697.44
2022-10-03T13:34:32.052Z,93698.25
2022-10-03T13:35:59.829Z,93694.03
2022-10-03T13:37:10.059Z,93705.19
2022-10-03T13:38:34.702Z,93696.31
2022-10-03T13:39:50.371Z,93690.50
2022-10-03T13:41:06.399Z,93703.22
2022-10-03T13:42:19.390Z,93696.94
2022-10-03T13:43:23.273Z,93699.38
2022-10-03T13:44:38.015Z,93695.94
2022-10-03T13:45:40.058Z,93690.19
2022-10-03T13:46:53.323Z,93688.25
2022-10-03T13:48:09.374Z,93687.06
2022-10-03T13:49:18.956Z,93689.78
2022-10-03T13:50:34.158Z,93691.31
2022-10-03T13:51:50.181Z,93684.03
2022-10-03T13:52:54.571Z,93689.03
2022-10-03T13:54:00.151Z,93675.94
2022-10-03T13:55:08.766Z,93682.44
2022-10-03T13:56:33.343Z,93679.00
2022-10-03T13:57:39.853Z,93701.72
2022-10-03T13:58:51.432Z,93697.41
2022-10-03T14:00:08.502Z,93704.72
2022-10-03T14:01:11.626Z,93706.16
2022-10-03T14:02:43.174Z,93707.69
2022-10-03T14:03:54.549Z,93710.44
2022-10-03T14:05:20.462Z,93709.22
2022-10-03T14:06:37.576Z,93708.06
2022-10-03T14:07:40.704Z,93708.97
2022-10-03T14:08:52.180Z,93706.47
2022-10-03T14:10:07.315Z,93709.84
2022-10-03T14:11:16.373Z,93720.41
2022-10-03T14:12:55.410Z,93713.00
2022-10-03T14:14:14.422Z,93714.13
2022-10-03T14:15:30.364Z,93717.22
2022-10-03T14:16:31.405Z,93725.00
2022-10-03T14:17:43.727Z,93712.78
2022-10-03T14:18:55.782Z,93719.38
2022-10-03T14:20:22.274Z,93724.09
2022-10-03T14:22:09.619Z,93723.53
2022-10-03T14:23:48.639Z,93721.16
2022-10-03T14:24:51.753Z,93727.47
2022-10-03T14:26:01.303Z,93720.97
2022-10-03T14:27:12.904Z,93717.91
2022-10-03T14:28:32.579Z,93717.22
2022-10-03T14:30:00.404Z,93720.97
2022-10-03T14:31:20.951Z,93724.13
2022-10-03T14:32:46.388Z,93718.78
2022-10-03T14:33:45.726Z,93725.47
2022-10-03T14:35:03.848Z,93714.72
2022-10-03T14:36:12.436Z,93727.13
2022-10-03T14:37:57.186Z,93726.94
2022-10-03T14:39:35.978Z,93731.88
2022-10-03T14:40:50.359Z,93727.19
2022-10-03T14:41:55.904Z,93726.47
2022-10-03T14:43:08.784Z,93717.19
2022-10-03T14:44:39.645Z,93724.34
2022-10-03T14:45:45.074Z,93729.94
2022-10-03T14:46:53.001Z,93734.19
2022-10-03T14:47:55.226Z,93724.63
2022-10-03T14:48:58.913Z,93729.53
2022-10-03T14:50:00.058Z,93731.56
2022-10-03T14:51:22.457Z,93737.13
2022-10-03T14:52:51.489Z,93740.34
2022-10-03T14:53:55.596Z,93741.78
2022-10-03T14:54:54.536Z,93738.44
2022-10-03T14:56:03.815Z,93737.75
2022-10-03T14:57:00.516Z,93725.53
2022-10-03T14:58:16.867Z,93732.66
2022-10-03T14:59:34.786Z,93741.13
2022-10-03T15:00:45.393Z,93730.16
2022-10-03T15:01:49.506Z,93733.97
2022-10-03T15:02:47.181Z,93728.28
2022-10-03T15:04:02.809Z,93735.13